Time;durP1;ratioP1;P1;durP2;ratioP2;P2;SDS_P1;SDS_P2;PMS_P1;PMS_P2;Temp;Humidity;BMP_temperature;BMP_pressure;BME280_temperature;BME280_humidity;BME280_pressure;Samples;Min_cycle;Max_cycle;Signal;HPM_P1;HPM_P2
2022/10/21 00:00:05;;;;;;;2.43;1.60;;;;;;;9.89;68.07;148527.66;5113962;28;20207;-54
2022/10/21 00:02:33;;;;;;;6.00;1.67;;;;;;;10.00;68.79;148555.50;5113867;28;20249;-55
2022/10/21 00:05:01;;;;;;;2.50;1.93;;;;;;;9.88;68.90;148525.19;5113922;28;20192;-55
2022/10/21 00:07:28;;;;;;;4.17;1.90;;;;;;;10.10;68.31;148580.72;5113684;28;20183;-56
2022/10/21 00:09:54;;;;;;;2.50;1.40;;;;;;;10.04;67.12;148566.88;5113937;28;20632;-56
2022/10/21 00:12:21;;;;;;;4.00;1.83;;;;;;;10.09;69.10;148578.25;5113989;28;20226;-56
2022/10/21 00:14:48;;;;;;;2.73;1.47;;;;;;;10.13;69.61;148587.06;5113506;28;20183;-56
2022/10/21 00:17:15;;;;;;;4.67;1.30;;;;;;;10.08;67.59;148575.69;5113510;28;20557;-56
2022/10/21 00:19:43;;;;;;;3.90;1.70;;;;;;;10.04;67.37;148566.88;5113775;28;20682;-56
2022/10/21 00:22:10;;;;;;;1.40;1.40;;;;;;;10.00;67.25;148555.50;5113372;28;20270;-56
2022/10/21 00:24:37;;;;;;;1.50;1.50;;;;;;;10.03;65.92;148563.06;5113812;28;20222;-56
2022/10/21 00:27:04;;;;;;;2.40;1.50;;;;;;;10.07;65.81;148574.44;5113281;28;20183;-55
2022/10/21 00:29:31;;;;;;;1.80;1.70;;;;;;;10.09;65.47;148579.50;5105984;28;20730;-56
2022/10/21 00:31:58;;;;;;;1.80;1.30;;;;;;;10.08;65.68;148576.97;5093166;28;20635;-56
2022/10/21 00:34:25;;;;;;;4.83;1.60;;;;;;;10.00;67.10;148555.50;5093196;28;20196;-55
2022/10/21 00:36:53;;;;;;;2.83;1.50;;;;;;;10.04;66.05;148565.59;5092745;28;20188;-57
2022/10/21 00:39:22;;;;;;;1.87;1.77;;;;;;;9.92;66.87;148535.28;5092584;28;20195;-56
2022/10/21 00:41:49;;;;;;;4.87;1.50;;;;;;;9.87;69.64;148522.63;5092641;28;20194;-55
2022/10/21 00:44:16;;;;;;;2.93;1.80;;;;;;;9.70;68.61;148479.69;5092619;28;20191;-56
2022/10/21 00:46:47;;;;;;;2.77;1.63;;;;;;;9.71;69.77;148482.22;5092622;28;20184;-56
2022/10/21 00:49:19;;;;;;;3.83;1.70;;;;;;;9.67;72.21;148472.13;5092486;28;20279;-55
2022/10/21 00:51:48;;;;;;;4.30;1.50;;;;;;;9.62;70.85;148462.03;5092792;28;20566;-56
2022/10/21 00:54:18;;;;;;;2.27;1.63;;;;;;;9.59;71.28;148454.41;5092352;28;20190;-56
2022/10/21 00:56:47;;;;;;;3.13;1.30;;;;;;;9.59;71.30;148454.41;5092959;28;20546;-56
2022/10/21 00:59:15;;;;;;;3.30;1.53;;;;;;;9.57;72.15;148449.38;5092671;28;20649;-55
2022/10/21 01:01:42;;;;;;;3.57;1.50;;;;;;;9.63;73.53;148463.28;5092188;28;20207;-56
2022/10/21 01:04:09;;;;;;;1.53;1.43;;;;;;;9.60;72.33;148456.94;5092804;28;20195;-57
2022/10/21 01:06:37;;;;;;;3.93;1.57;;;;;;;9.62;72.94;148462.03;5092319;28;20195;-55
2022/10/21 01:09:05;;;;;;;1.80;1.63;;;;;;;9.62;76.26;148460.75;5092094;28;20275;-56
2022/10/21 01:11:39;;;;;;;1.53;1.43;;;;;;;9.60;74.06;148455.66;5092196;28;20191;-55
2022/10/21 01:14:39;;;;;;;4.53;1.73;;;;;;;9.60;73.69;148456.94;5092247;28;20219;-56
2022/10/21 01:17:18;;;;;;;1.73;1.63;;;;;;;9.71;73.14;148482.22;5086756;28;20200;-58
2022/10/21 01:20:20;;;;;;;4.00;1.40;;;;;;;9.74;73.15;148489.78;5092149;28;20199;-57
2022/10/21 01:23:27;;;;;;;1.70;1.60;;;;;;;9.77;71.45;148498.63;5072779;28;20253;-56
2022/10/21 01:26:22;;;;;;;2.17;1.80;;;;;;;9.72;71.88;148484.75;5042333;28;20207;-55
2022/10/21 01:28:58;;;;;;;3.70;1.87;;;;;;;9.73;73.33;148488.50;5047940;28;20210;-56
2022/10/21 01:31:36;;;;;;;3.00;1.50;;;;;;;9.54;73.98;148441.81;5092433;28;20200;-55
2022/10/21 01:34:10;;;;;;;1.97;1.60;;;;;;;9.40;78.62;148406.44;5092167;28;20243;-55
2022/10/21 01:36:43;;;;;;;2.73;1.57;;;;;;;9.38;75.66;148400.09;5092065;28;20184;-56
2022/10/21 01:39:19;;;;;;;5.03;1.63;;;;;;;9.25;80.36;148368.53;5092103;28;20578;-55
2022/10/21 01:41:54;;;;;;;2.33;1.67;;;;;;;9.32;81.00;148386.22;5091657;28;20205;-56
2022/10/21 01:44:26;;;;;;;3.00;1.57;;;;;;;9.15;77.92;148344.56;5091739;28;20190;-55
2022/10/21 01:46:59;;;;;;;2.43;1.87;;;;;;;9.26;77.20;148371.06;5091787;28;20184;-55
2022/10/21 01:49:30;;;;;;;1.30;1.30;;;;;;;9.20;76.29;148355.94;5091863;28;20183;-55
2022/10/21 01:51:59;;;;;;;1.77;1.63;;;;;;;9.14;76.83;148342.03;5092110;28;20181;-56
2022/10/21 01:54:31;;;;;;;1.90;1.80;;;;;;;9.18;77.35;148350.88;5091984;28;20188;-56
2022/10/21 01:56:59;;;;;;;3.60;1.77;;;;;;;9.12;77.73;148336.97;5091828;28;20190;-54
2022/10/21 01:59:30;;;;;;;4.00;1.60;;;;;;;9.21;77.15;148358.44;5091740;28;20230;-56
2022/10/21 02:02:02;;;;;;;1.60;1.47;;;;;;;9.20;78.19;148355.94;5091637;28;20207;-55
2022/10/21 02:04:31;;;;;;;1.97;1.30;;;;;;;9.15;78.20;148343.31;5091498;28;20184;-56
2022/10/21 02:06:58;;;;;;;1.33;1.33;;;;;;;9.20;78.50;148354.66;5091623;28;20192;-55
2022/10/21 02:09:25;;;;;;;1.90;1.80;;;;;;;9.20;80.10;148355.94;5091857;28;20192;-56
2022/10/21 02:11:56;;;;;;;1.90;1.70;;;;;;;9.21;81.83;148358.44;5091488;28;20184;-55
2022/10/21 02:14:29;;;;;;;1.80;1.70;;;;;;;9.23;82.25;148363.50;5091781;28;20211;-56
2022/10/21 02:16:58;;;;;;;11.83;1.70;;;;;;;9.22;78.65;148360.97;5091570;28;20643;-55
2022/10/21 02:19:26;;;;;;;1.57;1.47;;;;;;;9.15;79.04;148343.31;5091823;28;20185;-54
2022/10/21 02:21:56;;;;;;;1.40;1.30;;;;;;;9.05;77.89;148318.03;5091898;28;20204;-57
2022/10/21 02:24:32;;;;;;;1.47;1.37;;;;;;;8.91;78.06;148282.72;5092235;28;20206;-55
2022/10/21 02:26:59;;;;;;;1.83;1.13;;;;;;;8.95;78.30;148294.09;5092056;28;20539;-55
2022/10/21 02:29:29;;;;;;;3.37;1.53;;;;;;;9.11;78.45;148333.19;5099438;28;20231;-56
2022/10/21 02:32:05;;;;;;;2.03;1.40;;;;;;;9.18;77.80;148352.13;5115629;28;20175;-56
2022/10/21 02:34:47;;;;;;;1.90;1.10;;;;;;;9.14;77.63;148340.75;5115656;28;20679;-55
2022/10/21 02:37:22;;;;;;;5.47;1.27;;;;;;;9.14;77.76;148340.75;5116511;28;20550;-56
2022/10/21 02:39:52;;;;;;;1.57;1.47;;;;;;;9.05;78.51;148318.03;5115679;28;20183;-54
2022/10/21 02:42:24;;;;;;;3.13;1.37;;;;;;;8.94;79.10;148290.28;5116168;28;20199;-56
2022/10/21 02:44:52;;;;;;;1.80;1.27;;;;;;;9.14;78.67;148342.03;5115792;28;20184;-55
2022/10/21 02:47:20;;;;;;;2.53;1.60;;;;;;;9.18;78.75;148352.13;5115652;28;20194;-55
2022/10/21 02:49:47;;;;;;;1.20;1.20;;;;;;;8.97;78.18;148297.84;5115455;28;20189;-55
2022/10/21 02:52:14;;;;;;;4.97;1.80;;;;;;;9.32;79.75;148386.22;5115594;28;20285;-56
2022/10/21 02:54:41;;;;;;;1.27;1.20;;;;;;;9.17;79.25;148349.59;5115180;28;20179;-56
2022/10/21 02:57:08;;;;;;;1.40;1.30;;;;;;;9.06;80.16;148321.84;5115462;28;20214;-56
2022/10/21 02:59:35;;;;;;;1.37;1.27;;;;;;;8.95;82.10;148294.09;5115103;28;20272;-55
2022/10/21 03:02:02;;;;;;;1.27;1.27;;;;;;;9.10;84.21;148330.66;5114915;28;20242;-55
2022/10/21 03:04:30;;;;;;;1.83;1.40;;;;;;;9.17;82.42;148349.59;5115127;28;20194;-55
2022/10/21 03:06:57;;;;;;;1.23;1.17;;;;;;;9.16;79.65;148345.84;5114802;28;20187;-56
2022/10/21 03:09:24;;;;;;;3.63;1.30;;;;;;;9.18;79.55;148350.88;5115199;28;20187;-56
2022/10/21 03:11:51;;;;;;;1.40;1.30;;;;;;;9.23;79.36;148362.22;5114869;28;20180;-55
2022/10/21 03:14:18;;;;;;;1.90;1.70;;;;;;;9.24;78.60;148366.03;5114731;28;20189;-55
2022/10/21 03:16:45;;;;;;;1.60;1.50;;;;;;;9.14;77.46;148342.03;5114764;28;20190;-55
2022/10/21 03:19:12;;;;;;;2.00;1.90;;;;;;;9.06;77.45;148320.56;5114672;28;20197;-54
2022/10/21 03:21:40;;;;;;;1.70;1.60;;;;;;;8.92;78.43;148286.47;5114842;28;20212;-55
2022/10/21 03:24:07;;;;;;;2.07;1.77;;;;;;;8.95;78.91;148294.09;5114703;28;20195;-56
2022/10/21 03:26:34;;;;;;;4.07;1.97;;;;;;;8.96;79.96;148295.31;5114645;28;20194;-56
2022/10/21 03:29:01;;;;;;;5.00;1.77;;;;;;;8.99;78.87;148302.91;5114318;28;20179;-55
2022/10/21 03:31:28;;;;;;;3.97;1.70;;;;;;;9.02;78.67;148310.47;5114493;28;20186;-56
2022/10/21 03:33:55;;;;;;;1.87;1.77;;;;;;;9.08;79.85;148326.88;5114422;28;20191;-56
2022/10/21 03:36:22;;;;;;;3.60;2.63;;;;;;;8.95;84.01;148292.81;5114336;28;20194;-54
2022/10/21 03:38:50;;;;;;;3.87;2.60;;;;;;;8.84;86.48;148266.28;5114477;28;20184;-56
2022/10/21 03:41:17;;;;;;;2.53;2.37;;;;;;;8.70;91.22;148230.91;5113733;28;20203;-56
2022/10/21 03:43:44;;;;;;;4.37;2.50;;;;;;;8.40;91.68;148156.47;5114396;28;20209;-55
2022/10/21 03:46:11;;;;;;;5.23;2.40;;;;;;;8.71;91.44;148234.72;5114423;28;20187;-56
2022/10/21 03:48:38;;;;;;;7.83;2.80;;;;;;;8.82;92.61;148261.25;5114336;28;20237;-57
2022/10/21 03:51:05;;;;;;;16.97;2.50;;;;;;;8.74;91.24;148239.81;5113948;28;20183;-55
2022/10/21 03:53:32;;;;;;;15.87;4.00;;;;;;;8.62;92.60;148212.00;5113999;28;20186;-56
2022/10/21 03:56:00;;;;;;;4.67;2.57;;;;;;;8.63;92.58;148213.28;5113788;28;20190;-56
2022/10/21 03:58:27;;;;;;;9.63;3.20;;;;;;;8.44;96.00;148165.34;5114219;28;20190;-55
2022/10/21 04:00:55;;;;;;;5.70;3.40;;;;;;;8.51;97.98;148184.25;5114781;28;20690;-56
2022/10/21 04:03:22;;;;;;;6.97;3.33;;;;;;;8.44;98.41;148166.59;5113865;28;20190;-57
2022/10/21 04:05:49;;;;;;;7.73;3.47;;;;;;;8.33;100.00;148137.56;5114021;28;20187;-55
2022/10/21 04:08:16;;;;;;;7.20;3.47;;;;;;;8.16;100.00;148095.88;5113671;28;20194;-56
2022/10/21 04:10:44;;;;;;;7.43;3.50;;;;;;;7.74;100.00;147991.19;5113922;28;20180;-55
2022/10/21 04:13:13;;;;;;;6.40;3.37;;;;;;;7.80;100.00;148007.59;5113955;28;20179;-55
2022/10/21 04:15:40;;;;;;;4.93;3.33;;;;;;;7.65;100.00;147968.47;5113505;28;20183;-55
2022/10/21 04:18:07;;;;;;;9.20;3.23;;;;;;;7.58;100.00;147952.13;5113716;28;20556;-55
2022/10/21 04:20:34;;;;;;;5.97;3.20;;;;;;;7.57;100.00;147948.31;5113713;28;20530;-55
2022/10/21 04:23:02;;;;;;;13.57;3.80;;;;;;;7.66;100.00;147972.28;5113365;28;20183;-56
2022/10/21 04:25:30;;;;;;;11.93;4.60;;;;;;;7.49;100.00;147929.41;5113647;28;20195;-55
2022/10/21 04:27:57;;;;;;;14.13;4.50;;;;;;;7.39;100.00;147904.19;5113327;28;20218;-55
2022/10/21 04:30:25;;;;;;;8.50;3.70;;;;;;;7.42;100.00;147910.50;5113180;28;20605;-55
2022/10/21 04:32:52;;;;;;;16.67;4.50;;;;;;;7.57;100.00;147949.56;5113226;28;20194;-55
2022/10/21 04:35:19;;;;;;;8.50;4.17;;;;;;;7.25;100.00;147868.91;5113260;28;20191;-55
2022/10/21 04:37:46;;;;;;;12.17;2.87;;;;;;;7.50;100.00;147930.69;5113446;28;20198;-54
2022/10/21 04:40:13;;;;;;;4.97;2.87;;;;;;;7.63;100.00;147964.72;5113012;28;20197;-55
2022/10/21 04:42:40;;;;;;;4.70;3.27;;;;;;;7.39;100.00;147904.19;5113397;28;20573;-55
2022/10/21 04:45:08;;;;;;;10.87;4.47;;;;;;;7.63;100.00;147963.47;5113007;28;20183;-56
2022/10/21 04:47:36;;;;;;;5.60;3.53;;;;;;;7.34;100.00;147892.81;5112867;28;20249;-55
2022/10/21 04:50:03;;;;;;;12.77;5.10;;;;;;;7.45;100.00;147918.06;5113166;28;20527;-56
2022/10/21 04:52:30;;;;;;;7.30;3.73;;;;;;;7.54;100.00;147942.03;5112378;28;20198;-56
2022/10/21 04:54:58;;;;;;;27.30;6.27;;;;;;;7.62;100.00;147960.94;5112892;28;20270;-55
2022/10/21 04:57:25;;;;;;;34.10;6.33;;;;;;;7.80;100.00;148007.59;5112640;28;20188;-55
2022/10/21 04:59:52;;;;;;;22.10;7.20;;;;;;;7.51;100.00;147934.44;5112649;28;20183;-51
2022/10/21 05:02:19;;;;;;;23.00;6.20;;;;;;;7.34;100.00;147892.81;5112763;28;20207;-50
2022/10/21 05:04:47;;;;;;;10.27;4.23;;;;;;;7.47;100.00;147924.34;5112738;28;20638;-50
2022/10/21 05:07:14;;;;;;;39.13;6.80;;;;;;;7.71;100.00;147983.63;5112700;28;20186;-50
2022/10/21 05:09:41;;;;;;;26.00;5.90;;;;;;;7.85;100.00;148018.91;5094974;28;20684;-54
2022/10/21 05:12:08;;;;;;;17.60;5.30;;;;;;;7.98;100.00;148050.44;5112834;28;20646;-54
2022/10/21 05:14:36;;;;;;;21.63;6.77;;;;;;;8.38;100.00;148151.44;5112771;28;20565;-56
2022/10/21 05:17:03;;;;;;;33.67;7.03;;;;;;;8.24;100.00;148117.31;5094538;28;20270;-56
2022/10/21 05:19:30;;;;;;;23.40;6.57;;;;;;;9.01;100.00;148309.19;5112397;28;20183;-56
2022/10/21 05:21:58;;;;;;;16.17;5.87;;;;;;;9.28;100.00;148376.13;5112131;28;20203;-56
2022/10/21 05:24:28;;;;;;;20.97;5.40;;;;;;;9.51;100.00;148434.19;5112682;28;20681;-55
2022/10/21 05:26:55;;;;;;;28.27;5.60;;;;;;;10.00;97.39;148556.75;5112313;28;20646;-56
2022/10/21 05:29:22;;;;;;;17.20;5.37;;;;;;;10.31;91.75;148633.84;5112352;28;20226;-56
2022/10/21 05:31:49;;;;;;;24.50;6.63;;;;;;;10.91;87.13;148784.28;5094405;28;20179;-57
2022/10/21 05:34:17;;;;;;;18.40;6.20;;;;;;;11.41;82.41;148908.25;5112532;28;20231;-56
2022/10/21 05:36:43;;;;;;;39.37;8.00;;;;;;;11.82;78.82;149010.75;5112588;28;20183;-57
2022/10/21 05:39:12;;;;;;;33.07;7.17;;;;;;;12.10;75.79;149080.34;5112431;28;20198;-57
2022/10/21 05:41:39;;;;;;;42.03;8.70;;;;;;;12.28;73.96;149127.19;5112197;28;20318;-58
2022/10/21 05:44:06;;;;;;;24.40;7.57;;;;;;;12.89;70.55;149277.84;5111985;28;20187;-58
2022/10/21 05:46:33;;;;;;;44.90;10.77;;;;;;;13.02;69.13;149312.06;5112049;28;20180;-59
2022/10/21 05:49:00;;;;;;;24.37;5.83;;;;;;;13.40;69.02;149407.09;5094238;28;20317;-58
2022/10/21 05:51:27;;;;;;;12.57;5.00;;;;;;;13.59;68.20;149453.94;5111939;28;20187;-57
2022/10/21 05:53:54;;;;;;;15.73;4.80;;;;;;;13.65;65.70;149469.19;5112300;28;20579;-58
2022/10/21 05:56:23;;;;;;;15.70;5.00;;;;;;;13.84;65.17;149516.03;5112464;28;20632;-59
2022/10/21 05:58:53;;;;;;;18.63;5.87;;;;;;;13.85;66.15;149519.84;5112105;28;20187;-58
2022/10/21 06:01:20;;;;;;;27.37;6.37;;;;;;;14.13;64.72;149589.59;5111477;28;20226;-58
2022/10/21 06:03:47;;;;;;;18.00;5.80;;;;;;;14.01;62.94;149559.13;5114218;28;20547;-58
2022/10/21 06:06:14;;;;;;;24.27;6.67;;;;;;;13.95;63.46;149543.94;5116099;28;20206;-58
2022/10/21 06:08:40;;;;;;;31.80;6.37;;;;;;;14.04;63.78;149566.75;5115746;28;20281;-57
2022/10/21 06:11:09;;;;;;;11.13;6.67;;;;;;;14.43;64.91;149664.38;5115715;28;20188;-57
2022/10/21 06:13:38;;;;;;;17.27;7.10;;;;;;;14.77;64.00;149750.63;5116032;28;20184;-58
2022/10/21 06:16:07;;;;;;;17.07;6.63;;;;;;;14.96;62.56;149798.84;5115643;28;20235;-57
2022/10/21 06:18:35;;;;;;;18.43;5.67;;;;;;;14.63;61.89;149715.13;5115554;28;20202;-58
2022/10/21 06:21:07;;;;;;;18.20;6.80;;;;;;;14.91;60.83;149786.13;5115600;28;20183;-57
2022/10/21 06:23:35;;;;;;;12.13;5.53;;;;;;;15.27;59.39;149874.94;5115255;28;20218;-58
2022/10/21 06:26:04;;;;;;;20.00;5.53;;;;;;;14.95;58.85;149796.28;5115318;28;20229;-56
2022/10/21 06:28:34;;;;;;;10.87;5.43;;;;;;;15.41;57.56;149910.44;5115337;28;20180;-58
2022/10/21 06:31:02;;;;;;;11.07;5.37;;;;;;;15.72;55.72;149989.19;5115210;28;20241;-58
2022/10/21 06:33:29;;;;;;;68.77;41.33;;;;;;;16.37;54.25;150151.69;5115669;28;20565;-58
2022/10/21 06:35:56;;;;;;;17.90;5.50;;;;;;;16.23;53.42;150116.13;5115447;28;20582;-59
2022/10/21 06:38:24;;;;;;;5.27;4.70;;;;;;;16.51;52.10;150187.22;5115168;28;20183;-59
2022/10/21 06:40:52;;;;;;;12.27;5.27;;;;;;;16.96;51.51;150300.31;5114377;28;20645;-57
2022/10/21 06:43:19;;;;;;;18.23;7.33;;;;;;;17.31;50.58;150388.00;5095207;28;20255;-58
2022/10/21 06:45:51;;;;;;;60.10;38.90;;;;;;;17.54;48.51;150445.16;5094708;28;20204;-57
2022/10/21 06:48:19;;;;;;;28.17;20.00;;;;;;;18.21;48.01;150614.25;5094816;28;20180;-59
2022/10/21 06:50:46;;;;;;;13.83;6.00;;;;;;;18.60;46.24;150713.50;5094777;28;20184;-59
2022/10/21 06:53:13;;;;;;;7.53;4.40;;;;;;;18.70;45.85;150737.69;5095071;28;20184;-59
2022/10/21 06:55:40;;;;;;;12.60;4.03;;;;;;;18.97;44.77;150806.34;5094876;28;20187;-60
2022/10/21 06:58:07;;;;;;;14.37;3.90;;;;;;;19.15;44.37;150852.16;5095323;28;20180;-59
2022/10/21 07:00:34;;;;;;;15.03;4.00;;;;;;;19.48;42.85;150934.91;5095364;28;20188;-59
2022/10/21 07:03:01;;;;;;;11.43;4.80;;;;;;;19.38;42.65;150909.44;5095120;28;20302;-60
2022/10/21 07:05:30;;;;;;;6.57;4.10;;;;;;;19.80;41.99;151013.81;5095141;28;20188;-58
2022/10/21 07:07:57;;;;;;;6.00;3.73;;;;;;;20.08;41.84;151085.09;5094584;28;20194;-59
2022/10/21 07:10:24;;;;;;;8.17;3.80;;;;;;;20.60;40.88;151216.31;5095404;28;20184;-60
2022/10/21 07:12:50;;;;;;;10.13;4.57;;;;;;;21.35;40.49;151404.91;5094487;28;20327;-59
2022/10/21 07:15:17;;;;;;;12.35;3.95;;;;;;;20.76;39.49;151255.78;5093677;28;20578;-59
2022/10/21 07:17:49;;;;;;;7.15;3.88;;;;;;;21.28;39.67;151388.34;5093631;28;20219;-58
2022/10/21 07:20:16;;;;;;;6.85;3.33;;;;;;;21.93;38.43;151551.53;5093410;28;20195;-58
2022/10/21 07:22:44;;;;;;;3.90;3.33;;;;;;;22.40;37.73;151668.84;5075455;28;20204;-60
2022/10/21 07:25:12;;;;;;;8.52;3.50;;;;;;;22.69;36.94;151744.13;5092881;28;20219;-59
2022/10/21 07:27:39;;;;;;;10.65;3.72;;;;;;;23.08;36.77;151842.38;5092946;28;20183;-60
2022/10/21 07:30:07;;;;;;;4.97;4.05;;;;;;;22.70;37.63;151745.41;5080976;28;20224;-60
2022/10/21 07:32:34;;;;;;;12.68;3.70;;;;;;;22.99;37.43;151819.41;5072707;28;20181;-60
2022/10/21 07:35:01;;;;;;;7.00;4.35;;;;;;;22.83;37.41;151778.53;5072660;28;20706;-60
2022/10/21 07:37:28;;;;;;;18.05;5.43;;;;;;;23.39;38.03;151918.88;5072579;28;20567;-59
2022/10/21 07:39:56;;;;;;;15.10;5.15;;;;;;;22.57;37.89;151712.22;5072078;28;20188;-59
2022/10/21 07:42:23;;;;;;;8.93;5.25;;;;;;;22.86;37.68;151786.22;5072755;28;20284;-60
2022/10/21 07:44:52;;;;;;;4.95;4.50;;;;;;;22.57;38.40;151712.22;5072918;28;20184;-59
2022/10/21 07:47:19;;;;;;;7.10;4.40;;;;;;;23.17;37.12;151865.28;5069263;28;20185;-59
2022/10/21 07:49:45;;;;;;;11.45;5.05;;;;;;;22.85;37.59;151783.66;5073061;28;20690;-59
2022/10/21 07:52:12;;;;;;;17.08;4.03;;;;;;;23.86;36.57;152038.91;5073062;28;20227;-60
2022/10/21 07:54:39;;;;;;;9.32;4.75;;;;;;;23.94;35.71;152058.06;5072357;28;20195;-59
2022/10/21 07:57:08;;;;;;;4.47;4.18;;;;;;;23.52;36.47;151952.13;5069510;28;20189;-61
2022/10/21 07:59:35;;;;;;;7.13;4.45;;;;;;;24.00;35.41;152074.69;5072318;28;20185;-61
2022/10/21 08:02:02;;;;;;;10.10;3.72;;;;;;;24.30;34.74;152148.75;5072289;28;20203;-59
2022/10/21 08:04:32;;;;;;;6.10;3.92;;;;;;;23.55;35.21;151959.81;5071239;28;20647;-61
2022/10/21 08:06:59;;;;;;;6.55;3.20;;;;;;;23.64;35.03;151982.75;5071155;28;20263;-59
2022/10/21 08:09:26;;;;;;;3.53;2.92;;;;;;;24.32;33.51;152153.84;5075503;28;20674;-59
2022/10/21 08:11:53;;;;;;;9.38;3.80;;;;;;;24.85;33.13;152289.31;5072623;28;20207;-60
2022/10/21 08:14:21;;;;;;;9.32;3.42;;;;;;;25.07;33.00;152342.94;5074594;28;20188;-60
2022/10/21 08:16:54;;;;;;;6.78;4.30;;;;;;;24.38;33.23;152169.19;5089906;28;20223;-60
2022/10/21 08:19:28;;;;;;;12.98;4.70;;;;;;;24.97;33.20;152319.94;5092981;28;20188;-58
2022/10/21 08:21:56;;;;;;;7.35;3.88;;;;;;;24.75;32.92;152263.69;5092742;28;20219;-59
2022/10/21 08:24:23;;;;;;;9.63;3.80;;;;;;;25.54;32.94;152461.81;5092991;28;20207;-59
2022/10/21 08:26:50;;;;;;;11.30;4.22;;;;;;;25.18;32.56;152372.31;5092792;28;20184;-59
2022/10/21 08:29:17;;;;;;;8.13;4.25;;;;;;;25.69;31.82;152500.16;5079742;28;20222;-59
2022/10/21 08:31:45;;;;;;;13.90;4.30;;;;;;;25.60;32.17;152478.41;5113154;28;20180;-59
2022/10/21 08:34:12;;;;;;;6.38;4.78;;;;;;;26.12;31.76;152608.78;5112969;28;20183;-58
2022/10/21 08:36:39;;;;;;;6.63;4.68;;;;;;;25.00;32.37;152327.59;5113140;28;20180;-59
2022/10/21 08:39:07;;;;;;;7.47;4.78;;;;;;;25.59;31.78;152475.84;5112474;28;20211;-58
2022/10/21 08:41:48;;;;;;;13.82;5.45;;;;;;;25.56;32.00;152468.19;5112837;28;20179;-59
2022/10/21 08:44:27;;;;;;;8.43;4.97;;;;;;;26.03;31.78;152587.06;5113334;28;20290;-58
2022/10/21 08:47:02;;;;;;;5.85;4.95;;;;;;;26.34;31.07;152665.09;5112627;28;20184;-58
2022/10/21 08:49:40;;;;;;;5.22;4.50;;;;;;;26.11;31.81;152607.50;5113072;28;20260;-58
2022/10/21 08:52:13;;;;;;;20.65;5.65;;;;;;;26.36;31.14;152670.19;5112499;28;20274;-59
2022/10/21 08:54:44;;;;;;;7.82;4.97;;;;;;;26.02;31.36;152584.50;5113854;28;20197;-58
2022/10/21 08:57:12;;;;;;;7.55;4.35;;;;;;;24.92;32.60;152307.16;5112693;28;20187;-59
2022/10/21 08:59:40;;;;;;;4.75;4.30;;;;;;;25.49;32.13;152450.28;5112717;28;20194;-59
2022/10/21 09:02:27;;;;;;;7.18;3.10;;;;;;;25.67;32.33;152495.06;5113227;28;20183;-59
2022/10/21 09:05:06;;;;;;;5.15;3.20;;;;;;;25.72;33.23;152509.09;5112819;28;20183;-57
2022/10/21 09:07:52;;;;;;;4.78;3.17;;;;;;;26.19;33.57;152626.69;5112933;28;20579;-58
2022/10/21 09:10:28;;;;;;;7.70;3.88;;;;;;;26.05;32.91;152590.91;5103276;28;20276;-58
2022/10/21 09:13:04;;;;;;;4.72;3.63;;;;;;;25.59;33.39;152474.63;5097608;28;20552;-57
2022/10/21 09:15:41;;;;;;;4.65;3.42;;;;;;;25.69;33.50;152501.44;5103909;28;20270;-58
2022/10/21 09:18:31;;;;;;;4.05;2.75;;;;;;;24.38;33.62;152169.19;5093130;28;20213;-58
2022/10/21 09:21:07;;;;;;;2.42;2.22;;;;;;;24.79;32.43;152273.91;5092547;28;20600;-58
2022/10/21 09:23:58;;;;;;;4.68;3.00;;;;;;;25.24;32.21;152387.69;5091879;28;20666;-57
2022/10/21 09:26:36;;;;;;;2.70;2.50;;;;;;;25.78;30.75;152523.16;5082452;28;20231;-58
2022/10/21 09:29:25;;;;;;;3.67;3.47;;;;;;;26.13;31.69;152611.38;5080894;28;21072;-58
2022/10/21 09:31:54;;;;;;;5.20;3.08;;;;;;;26.49;31.63;152702.16;5053695;28;20203;-58
2022/10/21 09:34:35;;;;;;;8.45;2.35;;;;;;;26.49;31.62;152703.44;5072270;28;20189;-58
2022/10/21 09:37:05;;;;;;;2.95;2.75;;;;;;;26.44;31.95;152690.66;5071624;28;20185;-58
2022/10/21 09:39:40;;;;;;;11.98;3.20;;;;;;;25.78;32.27;152524.44;5071462;28;20281;-58
2022/10/21 09:42:13;;;;;;;3.80;2.58;;;;;;;25.65;32.90;152491.22;5071448;28;20184;-59
2022/10/21 09:44:40;;;;;;;4.43;3.30;;;;;;;25.15;33.96;152363.38;5071507;28;20197;-58
2022/10/21 09:47:19;;;;;;;4.75;2.95;;;;;;;24.01;35.79;152077.25;5071144;28;20499;-60
2022/10/21 09:49:51;;;;;;;5.13;2.83;;;;;;;23.52;37.28;151952.13;5071127;28;20192;-59
2022/10/21 09:52:19;;;;;;;7.47;3.08;;;;;;;22.89;38.50;151793.88;5071354;28;20195;-58
2022/10/21 09:54:48;;;;;;;4.43;2.30;;;;;;;23.02;38.15;151827.03;5071366;28;20210;-57
2022/10/21 09:57:18;;;;;;;5.93;3.00;;;;;;;23.28;38.97;151892.13;5071179;28;20275;-58
2022/10/21 09:59:53;;;;;;;2.40;2.30;;;;;;;23.41;39.25;151924.00;5071491;28;20645;-58
2022/10/21 10:02:30;;;;;;;3.10;2.90;;;;;;;23.31;39.53;151899.75;5071072;28;20184;-57
2022/10/21 10:04:58;;;;;;;5.90;2.40;;;;;;;23.29;39.26;151893.41;5071274;28;20188;-57
2022/10/21 10:07:34;;;;;;;9.05;2.60;;;;;;;23.27;39.24;151889.56;5071475;28;20184;-58
2022/10/21 10:10:02;;;;;;;4.38;2.03;;;;;;;23.18;39.73;151867.84;5071172;28;20276;-58
2022/10/21 10:12:29;;;;;;;3.47;2.65;;;;;;;22.63;39.88;151727.50;5071125;28;20185;-59
2022/10/21 10:14:57;;;;;;;10.57;2.20;;;;;;;22.45;39.87;151681.59;5070995;28;20195;-57
2022/10/21 10:17:30;;;;;;;3.08;2.00;;;;;;;22.80;39.85;151769.63;5071272;28;20671;-57
2022/10/21 10:20:28;;;;;;;1.95;1.67;;;;;;;22.36;39.87;151658.66;5071065;28;20275;-58
2022/10/21 10:23:17;;;;;;;5.20;1.90;;;;;;;22.52;39.93;151699.44;5071007;28;20217;-57
2022/10/21 10:25:50;;;;;;;5.18;2.17;;;;;;;22.97;39.41;151813.00;5053515;28;20254;-58
2022/10/21 10:28:22;;;;;;;6.97;1.60;;;;;;;23.42;38.77;151927.84;5070973;28;20185;-59
2022/10/21 10:30:52;;;;;;;1.88;1.77;;;;;;;23.02;38.59;151827.03;5070928;28;20228;-58
2022/10/21 10:33:22;;;;;;;3.58;1.50;;;;;;;22.88;38.49;151791.31;5070927;28;20181;-58
2022/10/21 10:35:52;;;;;;;3.78;1.83;;;;;;;23.13;38.68;151855.09;5071234;28;20207;-58
2022/10/21 10:38:23;;;;;;;1.77;1.67;;;;;;;22.15;38.46;151607.59;5070973;28;20189;-58
2022/10/21 10:40:50;;;;;;;2.55;1.58;;;;;;;22.77;38.61;151763.25;5071314;28;20189;-58
2022/10/21 10:43:28;;;;;;;7.25;1.80;;;;;;;22.67;39.05;151738.97;5071281;28;20679;-57
2022/10/21 10:45:59;;;;;;;1.67;1.58;;;;;;;21.73;40.12;151500.47;5071438;28;20202;-57
2022/10/21 10:48:33;;;;;;;2.75;1.80;;;;;;;22.25;39.78;151633.13;5070999;28;20199;-57
2022/10/21 10:51:06;;;;;;;1.90;1.80;;;;;;;21.59;40.07;151464.81;5073365;28;20648;-57
2022/10/21 10:53:35;;;;;;;1.95;1.30;;;;;;;22.43;38.80;151676.47;5074406;28;20219;-57
2022/10/21 10:56:19;;;;;;;1.92;1.20;;;;;;;22.94;37.58;151806.63;5074213;28;20185;-56
2022/10/21 10:58:53;;;;;;;8.60;2.00;;;;;;;23.29;37.22;151894.69;5074264;28;20192;-57
2022/10/21 11:01:27;;;;;;;4.53;2.15;;;;;;;23.29;38.29;151893.41;5074273;28;20184;-56
2022/10/21 11:04:01;;;;;;;3.78;1.20;;;;;;;23.01;38.11;151824.47;5074563;28;20679;-58
2022/10/21 11:06:36;;;;;;;4.50;1.17;;;;;;;22.28;37.76;151639.47;5074172;28;20280;-57
2022/10/21 11:09:06;;;;;;;2.08;1.42;;;;;;;20.32;40.37;151146.31;5074430;28;20188;-57
2022/10/21 11:11:37;;;;;;;1.40;1.30;;;;;;;18.73;42.77;150744.00;5074489;28;20644;-56
2022/10/21 11:14:04;;;;;;;4.23;1.70;;;;;;;17.52;45.36;150440.09;5074394;28;20559;-58
2022/10/21 11:16:53;;;;;;;4.53;1.20;;;;;;;16.87;48.55;150278.72;5073983;28;20216;-57
2022/10/21 11:19:30;;;;;;;3.93;1.20;;;;;;;16.19;49.66;150105.97;5074299;28;20185;-56
2022/10/21 11:22:09;;;;;;;1.80;1.23;;;;;;;15.83;51.31;150015.81;5074330;28;20271;-56
2022/10/21 11:24:58;;;;;;;1.57;1.10;;;;;;;15.61;53.04;149961.28;5056231;28;20221;-57
2022/10/21 11:27:48;;;;;;;6.27;1.80;;;;;;;15.37;59.18;149900.28;5073970;28;20235;-56
2022/10/21 11:30:18;;;;;;;4.07;1.27;;;;;;;15.16;58.47;149847.00;5073552;28;20236;-56
2022/10/21 11:32:59;;;;;;;2.43;1.40;;;;;;;14.90;62.83;149783.59;5073741;28;20181;-56
2022/10/21 11:35:37;;;;;;;3.93;1.67;;;;;;;14.65;65.70;149720.19;5073989;28;20242;-57
2022/10/21 11:38:39;;;;;;;1.13;1.10;;;;;;;14.53;68.58;149689.75;5056488;28;20192;-57